createdAt,value
2019-03-24T00:00:39.436Z,29.40
2019-03-24T00:03:10.972Z,34.13
2019-03-24T00:05:42.453Z,30.20
2019-03-24T00:08:13.881Z,33.67
2019-03-24T00:10:45.365Z,27.97
2019-03-24T00:13:16.822Z,30.17
2019-03-24T00:15:49.041Z,31.90
2019-03-24T00:18:20.497Z,34.10
2019-03-24T00:20:52.787Z,34.33
2019-03-24T00:23:24.291Z,36.93
2019-03-24T00:25:55.762Z,31.13
2019-03-24T00:28:27.238Z,33.03
2019-03-24T00:30:58.746Z,30.53
2019-03-24T00:33:30.300Z,31.07
2019-03-24T00:36:01.747Z,26.23
2019-03-24T00:38:33.217Z,29.87
2019-03-24T00:41:05.165Z,27.13
2019-03-24T00:43:36.644Z,29.73
2019-03-24T00:46:08.075Z,33.07
2019-03-24T00:48:40.836Z,30.67
2019-03-24T00:51:12.346Z,28.53
2019-03-24T00:53:43.855Z,27.10
2019-03-24T00:56:15.370Z,29.17
2019-03-24T00:58:46.933Z,31.60
2019-03-24T01:01:19.253Z,26.07
2019-03-24T01:03:50.981Z,27.57
2019-03-24T01:06:22.495Z,30.10
2019-03-24T01:08:54.353Z,31.17
2019-03-24T01:11:25.852Z,27.90
2019-03-24T01:13:57.305Z,27.43
2019-03-24T01:16:28.811Z,28.57
2019-03-24T01:19:00.276Z,28.47
2019-03-24T01:21:31.726Z,29.70
2019-03-24T01:24:03.195Z,28.13
2019-03-24T01:26:34.693Z,33.43
2019-03-24T01:29:06.784Z,25.90
2019-03-24T01:31:38.375Z,23.67
2019-03-24T01:34:12.317Z,33.93
2019-03-24T01:36:44.554Z,25.10
2019-03-24T01:39:16.021Z,25.30
2019-03-24T01:41:47.493Z,22.17
2019-03-24T01:44:18.970Z,28.13
2019-03-24T01:46:50.415Z,23.13
2019-03-24T01:49:21.887Z,21.43
2019-03-24T01:51:53.456Z,24.13
2019-03-24T01:54:24.978Z,27.50
2019-03-24T01:56:56.708Z,19.37
2019-03-24T01:59:28.147Z,21.87
2019-03-24T02:01:59.691Z,21.23
2019-03-24T02:04:31.221Z,24.77
2019-03-24T02:07:02.645Z,27.30
2019-03-24T02:09:34.111Z,24.57
2019-03-24T02:12:05.668Z,22.27
2019-03-24T02:14:37.181Z,27.70
2019-03-24T02:17:08.908Z,26.97
2019-03-24T02:19:40.386Z,23.33
2019-03-24T02:22:11.910Z,32.53
2019-03-24T02:24:44.120Z,20.27
2019-03-24T02:27:15.688Z,24.73
2019-03-24T02:29:47.163Z,24.00
2019-03-24T02:32:18.643Z,25.87
2019-03-24T02:34:50.055Z,19.53
2019-03-24T02:37:21.534Z,21.83
2019-03-24T02:39:53.005Z,23.20
2019-03-24T02:42:24.455Z,25.77
2019-03-24T02:44:56.221Z,29.93
2019-03-24T02:47:27.712Z,27.50
2019-03-24T02:49:59.449Z,19.30
2019-03-24T02:52:30.919Z,21.43
2019-03-24T02:55:02.658Z,19.27
2019-03-24T02:57:34.120Z,20.57
2019-03-24T03:00:06.681Z,20.70
2019-03-24T03:02:38.568Z,20.77
2019-03-24T03:05:11.202Z,17.33
2019-03-24T03:07:42.841Z,24.37
2019-03-24T03:10:15.076Z,20.37
2019-03-24T03:12:47.731Z,20.53
2019-03-24T03:15:19.629Z,24.80
2019-03-24T03:17:51.096Z,23.80
2019-03-24T03:20:22.551Z,23.77
2019-03-24T03:22:54.010Z,23.73
2019-03-24T03:25:25.585Z,22.37
2019-03-24T03:27:57.172Z,24.47
2019-03-24T03:30:28.605Z,19.63
2019-03-24T03:33:00.374Z,16.97
2019-03-24T03:35:31.868Z,22.27
2019-03-24T03:38:04.389Z,20.80
2019-03-24T03:40:35.869Z,30.17
2019-03-24T03:43:07.303Z,21.00
2019-03-24T03:45:39.508Z,23.97
2019-03-24T03:48:11.190Z,20.17
2019-03-24T03:50:42.694Z,16.97
2019-03-24T03:53:14.201Z,22.80
2019-03-24T03:55:45.729Z,22.00
2019-03-24T03:58:17.268Z,25.70
2019-03-24T04:00:47.868Z,19.90
2019-03-24T04:03:18.549Z,24.20
2019-03-24T04:05:49.153Z,20.57
2019-03-24T04:08:19.769Z,18.43
2019-03-24T04:10:50.394Z,20.83
2019-03-24T04:13:21.096Z,20.77
2019-03-24T04:15:51.690Z,23.70
2019-03-24T04:18:22.385Z,21.40
2019-03-24T04:20:52.948Z,15.57
2019-03-24T04:23:23.557Z,14.27
2019-03-24T04:25:54.177Z,18.20
2019-03-24T04:28:24.781Z,15.40
2019-03-24T04:30:56.242Z,18.93
2019-03-24T04:33:26.827Z,17.17
2019-03-24T04:35:57.994Z,20.93
2019-03-24T04:38:28.573Z,18.53
2019-03-24T04:40:59.611Z,16.90
2019-03-24T04:43:30.199Z,25.90
2019-03-24T04:46:00.950Z,26.63
2019-03-24T04:48:31.543Z,26.97
2019-03-24T04:51:02.170Z,16.73
2019-03-24T04:53:32.761Z,24.57
2019-03-24T04:56:03.704Z,17.27
2019-03-24T04:58:34.361Z,22.93
2019-03-24T05:01:04.975Z,31.80
2019-03-24T05:03:35.596Z,25.37
2019-03-24T05:06:06.503Z,25.67
2019-03-24T05:08:37.432Z,22.17
2019-03-24T05:11:08.311Z,22.77
2019-03-24T05:13:39.015Z,24.30
2019-03-24T05:16:09.616Z,23.00
2019-03-24T05:18:41.433Z,23.93
2019-03-24T05:21:11.962Z,23.43
2019-03-24T05:23:42.568Z,28.80
2019-03-24T05:26:13.131Z,24.53
2019-03-24T05:28:43.761Z,25.93
2019-03-24T05:31:14.346Z,33.73
2019-03-24T05:33:45.241Z,40.77
2019-03-24T05:36:15.817Z,29.57
2019-03-24T05:38:46.414Z,36.43
2019-03-24T05:41:17.011Z,33.83
2019-03-24T05:43:47.593Z,33.13
2019-03-24T05:46:18.194Z,34.13
2019-03-24T05:48:48.856Z,28.73
2019-03-24T05:51:19.472Z,32.87
2019-03-24T05:53:50.052Z,31.13
2019-03-24T05:56:20.647Z,34.63
2019-03-24T05:58:51.215Z,42.37
2019-03-24T06:01:21.796Z,30.70
2019-03-24T06:03:52.378Z,25.20
2019-03-24T06:06:22.974Z,35.23
2019-03-24T06:08:53.570Z,32.33
2019-03-24T06:11:24.155Z,27.23
2019-03-24T06:13:54.780Z,36.57
2019-03-24T06:16:25.481Z,33.63
2019-03-24T06:18:56.066Z,37.87
2019-03-24T06:21:26.751Z,39.70
2019-03-24T06:23:57.342Z,25.83
2019-03-24T06:26:27.924Z,24.20
2019-03-24T06:28:58.532Z,29.53
2019-03-24T06:31:29.163Z,30.60
2019-03-24T06:33:59.754Z,24.23
2019-03-24T06:36:30.385Z,25.43
2019-03-24T06:39:00.981Z,23.97
2019-03-24T06:41:31.540Z,31.47
2019-03-24T06:44:03.033Z,27.60
2019-03-24T06:46:33.565Z,26.17
2019-03-24T06:49:04.599Z,27.90
2019-03-24T06:51:35.169Z,23.77
2019-03-24T06:54:06.072Z,27.10
2019-03-24T06:56:36.666Z,29.63
2019-03-24T06:59:08.579Z,29.30
2019-03-24T07:01:39.757Z,23.43
2019-03-24T07:04:10.336Z,19.13
2019-03-24T07:06:42.108Z,27.37
2019-03-24T07:09:12.713Z,23.43
2019-03-24T07:11:43.709Z,22.20
2019-03-24T07:14:14.314Z,22.53
2019-03-24T07:16:44.906Z,31.60
2019-03-24T07:19:15.538Z,23.33
2019-03-24T07:21:46.302Z,25.27
2019-03-24T07:24:16.939Z,26.13
2019-03-24T07:26:47.519Z,26.20
2019-03-24T07:29:18.109Z,22.80
2019-03-24T07:31:48.773Z,20.27
2019-03-24T07:34:19.379Z,27.00
2019-03-24T07:36:50.004Z,31.30
2019-03-24T07:39:20.580Z,19.50
2019-03-24T07:41:51.187Z,20.87
2019-03-24T07:44:21.788Z,23.17
2019-03-24T07:46:52.369Z,18.20
2019-03-24T07:49:23.033Z,19.23
2019-03-24T07:51:53.630Z,23.30
2019-03-24T07:54:24.251Z,27.63
2019-03-24T07:56:54.849Z,23.80
2019-03-24T07:59:25.553Z,17.70
2019-03-24T08:01:57.541Z,20.27
2019-03-24T08:04:28.110Z,25.07
2019-03-24T08:06:58.715Z,16.93
2019-03-24T08:09:29.339Z,22.37
2019-03-24T08:11:59.939Z,21.07
2019-03-24T08:14:30.563Z,21.87
2019-03-24T08:17:01.605Z,20.47
2019-03-24T08:19:33.204Z,20.37
2019-03-24T08:22:03.777Z,17.67
2019-03-24T08:24:34.588Z,29.07
2019-03-24T08:27:05.189Z,26.23
2019-03-24T08:29:35.863Z,19.53
2019-03-24T08:32:06.959Z,18.33
2019-03-24T08:34:37.577Z,19.63
2019-03-24T08:37:08.853Z,21.87
2019-03-24T08:39:40.285Z,20.80
2019-03-24T08:42:11.389Z,19.00
2019-03-24T08:44:42.089Z,23.20
2019-03-24T08:47:13.099Z,22.43
2019-03-24T08:49:43.681Z,25.17
2019-03-24T08:52:14.434Z,21.43
2019-03-24T08:54:45.539Z,18.03
2019-03-24T08:57:16.142Z,25.33
2019-03-24T08:59:47.804Z,25.43
2019-03-24T09:02:21.520Z,19.53
2019-03-24T09:04:52.102Z,18.30
2019-03-24T09:07:22.789Z,24.90
2019-03-24T09:09:53.380Z,19.00
2019-03-24T09:12:24.016Z,21.37
2019-03-24T09:14:54.607Z,25.80
2019-03-24T09:17:25.233Z,17.43
2019-03-24T09:19:55.809Z,20.77
2019-03-24T09:22:26.443Z,21.30
2019-03-24T09:24:57.132Z,21.33
2019-03-24T09:27:27.758Z,24.37
2019-03-24T09:30:00.385Z,24.67
2019-03-24T09:32:30.953Z,20.47
2019-03-24T09:35:01.625Z,18.33
2019-03-24T09:37:32.224Z,19.67
2019-03-24T09:40:02.791Z,17.07
2019-03-24T09:42:33.387Z,24.57
2019-03-24T09:45:03.988Z,18.00
2019-03-24T09:47:34.594Z,19.00
2019-03-24T09:50:06.409Z,21.73
2019-03-24T09:52:37.175Z,22.77
2019-03-24T09:55:07.808Z,19.00
2019-03-24T09:57:38.795Z,19.67
2019-03-24T10:00:09.468Z,20.57
2019-03-24T10:02:40.166Z,19.80
2019-03-24T10:05:11.118Z,22.67
2019-03-24T10:07:43.236Z,17.67
2019-03-24T10:10:14.842Z,20.70
2019-03-24T10:12:45.567Z,19.50
2019-03-24T10:15:16.740Z,28.60
2019-03-24T10:17:47.349Z,18.83
2019-03-24T10:20:18.681Z,21.27
2019-03-24T10:22:49.268Z,24.07
2019-03-24T10:25:25.433Z,17.87
2019-03-24T10:27:59.571Z,17.67
2019-03-24T10:30:33.683Z,16.10
2019-03-24T10:33:12.040Z,21.80
2019-03-24T10:35:50.429Z,20.27
2019-03-24T10:38:33.259Z,18.23
2019-03-24T10:41:11.710Z,16.70
2019-03-24T10:43:50.692Z,21.63
2019-03-24T10:46:29.406Z,15.50
2019-03-24T10:49:06.683Z,14.23
2019-03-24T10:51:39.631Z,14.03
2019-03-24T10:54:10.368Z,15.70
2019-03-24T10:56:41.077Z,10.80
2019-03-24T10:59:11.840Z,14.23
2019-03-24T11:01:42.919Z,13.53
2019-03-24T11:04:15.858Z,19.17
2019-03-24T11:06:45.982Z,13.93
2019-03-24T11:09:17.709Z,16.90
2019-03-24T11:11:48.825Z,13.87
2019-03-24T11:14:20.072Z,14.57
2019-03-24T11:16:50.682Z,19.60
2019-03-24T11:19:21.397Z,17.00
2019-03-24T11:21:52.031Z,14.97
2019-03-24T11:24:22.642Z,20.47
2019-03-24T11:26:53.361Z,19.97
2019-03-24T11:29:23.956Z,19.20
2019-03-24T11:31:54.568Z,18.27
2019-03-24T11:34:25.161Z,14.27
2019-03-24T11:36:55.808Z,18.27
2019-03-24T11:39:26.424Z,16.00
2019-03-24T11:41:57.085Z,16.57
2019-03-24T11:44:27.745Z,16.73
2019-03-24T11:46:58.372Z,19.27
2019-03-24T11:49:29.101Z,17.43
2019-03-24T11:51:59.794Z,16.60
2019-03-24T11:54:30.540Z,16.03
2019-03-24T11:57:01.426Z,13.23
2019-03-24T11:59:32.008Z,16.70
2019-03-24T12:02:02.729Z,13.30
2019-03-24T12:04:41.054Z,12.60
2019-03-24T12:07:11.947Z,10.30
2019-03-24T12:09:42.920Z,14.77
2019-03-24T12:12:13.788Z,15.17
2019-03-24T12:14:45.250Z,14.77
2019-03-24T12:17:19.047Z,17.40
2019-03-24T12:19:56.838Z,19.53
2019-03-24T12:22:23.184Z,12.33
2019-03-24T12:24:54.926Z,18.77
2019-03-24T12:27:25.731Z,19.40
2019-03-24T12:29:57.280Z,13.00
2019-03-24T12:32:27.986Z,13.53
2019-03-24T12:34:58.687Z,12.80
2019-03-24T12:37:29.614Z,12.47
2019-03-24T12:40:01.366Z,14.80
2019-03-24T12:42:32.532Z,18.47
2019-03-24T12:45:03.706Z,13.30
2019-03-24T12:47:34.371Z,14.57
2019-03-24T12:50:09.364Z,21.77
2019-03-24T12:52:39.171Z,13.57
2019-03-24T12:55:10.487Z,13.17
2019-03-24T12:57:44.044Z,12.77
2019-03-24T13:00:15.589Z,13.00
2019-03-24T13:02:46.495Z,13.60
2019-03-24T13:05:17.244Z,16.90
2019-03-24T13:07:47.869Z,12.13
2019-03-24T13:10:18.469Z,14.73
2019-03-24T13:12:49.100Z,14.80
2019-03-24T13:15:19.753Z,11.83
2019-03-24T13:17:50.432Z,12.37
2019-03-24T13:20:36.508Z,9.30
2019-03-24T13:22:54.904Z,17.20
2019-03-24T13:25:27.026Z,8.67
2019-03-24T13:27:57.878Z,13.63
2019-03-24T13:30:29.005Z,11.73
2019-03-24T13:32:59.731Z,10.10
2019-03-24T13:35:30.319Z,14.37
2019-03-24T13:38:02.058Z,10.00
2019-03-24T13:40:33.736Z,9.07
2019-03-24T13:43:05.689Z,12.03
2019-03-24T13:45:37.328Z,9.03
2019-03-24T13:48:09.373Z,12.97
2019-03-24T13:50:40.921Z,9.97
2019-03-24T13:53:14.738Z,10.73
2019-03-24T13:55:46.781Z,10.20
2019-03-24T13:58:17.492Z,15.60
2019-03-24T14:00:48.212Z,10.50
2019-03-24T14:03:18.998Z,11.17
2019-03-24T14:05:49.823Z,10.83
2019-03-24T14:08:20.543Z,11.80
2019-03-24T14:10:52.866Z,10.83
2019-03-24T14:13:23.646Z,9.37
2019-03-24T14:15:54.275Z,11.33
2019-03-24T14:18:25.181Z,10.83
2019-03-24T14:20:55.839Z,9.80
2019-03-24T14:23:27.442Z,10.23
2019-03-24T14:26:03.278Z,11.73
2019-03-24T14:28:34.267Z,12.33
2019-03-24T14:31:04.992Z,8.40
2019-03-24T14:33:35.621Z,14.10
2019-03-24T14:36:06.252Z,9.07
2019-03-24T14:38:36.976Z,13.43
2019-03-24T14:41:08.894Z,14.40
2019-03-24T14:43:39.637Z,11.73
2019-03-24T14:46:10.227Z,8.63
2019-03-24T14:48:41.659Z,11.90
2019-03-24T14:51:12.289Z,11.23
2019-03-24T14:53:42.915Z,10.93
2019-03-24T14:56:13.594Z,8.53
2019-03-24T14:58:44.288Z,10.33
2019-03-24T15:01:15.118Z,7.93
2019-03-24T15:03:45.787Z,10.50
2019-03-24T15:06:16.391Z,10.13
2019-03-24T15:08:47.134Z,9.67
2019-03-24T15:11:17.794Z,9.53
2019-03-24T15:13:48.450Z,12.23
2019-03-24T15:16:19.073Z,8.73
2019-03-24T15:18:49.715Z,13.80
2019-03-24T15:21:20.366Z,13.43
2019-03-24T15:23:51.015Z,10.07
2019-03-24T15:26:21.699Z,13.30
2019-03-24T15:28:52.367Z,14.07
2019-03-24T15:31:23.035Z,12.33
2019-03-24T15:33:53.669Z,14.70
2019-03-24T15:36:24.317Z,12.07
2019-03-24T15:38:56.444Z,11.80
2019-03-24T15:41:27.049Z,10.50
2019-03-24T15:43:57.747Z,11.33
2019-03-24T15:46:28.535Z,13.53
2019-03-24T15:48:59.219Z,15.23
2019-03-24T15:51:30.613Z,13.63
2019-03-24T15:54:01.411Z,9.40
2019-03-24T15:56:33.253Z,10.23
2019-03-24T15:59:03.889Z,9.43
2019-03-24T16:01:35.803Z,14.60
2019-03-24T16:04:06.469Z,11.43
2019-03-24T16:06:37.146Z,14.77
2019-03-24T16:09:08.876Z,10.90
2019-03-24T16:11:40.499Z,13.57
2019-03-24T16:14:11.400Z,14.87
2019-03-24T16:16:41.989Z,12.27
2019-03-24T16:19:12.613Z,19.33
2019-03-24T16:21:43.897Z,15.20
2019-03-24T16:24:14.580Z,16.57
2019-03-24T16:26:45.182Z,17.43
2019-03-24T16:29:16.335Z,10.97
2019-03-24T16:31:47.111Z,15.23
2019-03-24T16:34:17.820Z,14.77
2019-03-24T16:36:48.619Z,13.53
2019-03-24T16:39:20.403Z,12.47
2019-03-24T16:41:52.882Z,18.60
2019-03-24T16:44:24.521Z,16.30
2019-03-24T16:46:56.130Z,12.43
2019-03-24T16:49:26.805Z,12.23
2019-03-24T16:51:57.499Z,14.30
2019-03-24T16:54:28.200Z,14.43
2019-03-24T16:56:58.913Z,12.53
2019-03-24T16:59:29.598Z,11.90
2019-03-24T17:02:00.330Z,13.60
2019-03-24T17:04:31.548Z,14.90
2019-03-24T17:07:02.227Z,11.93
2019-03-24T17:09:32.878Z,12.33
2019-03-24T17:12:03.522Z,14.20
2019-03-24T17:14:34.944Z,12.40
2019-03-24T17:17:05.727Z,18.83
2019-03-24T17:19:36.742Z,12.63
2019-03-24T17:22:07.448Z,9.53
2019-03-24T17:24:40.013Z,10.77
2019-03-24T17:27:10.644Z,13.27
2019-03-24T17:29:42.162Z,16.17
2019-03-24T17:32:12.940Z,13.57
2019-03-24T17:34:43.549Z,13.60
2019-03-24T17:37:14.221Z,13.87
2019-03-24T17:39:44.876Z,18.60
2019-03-24T17:42:15.516Z,14.37
2019-03-24T17:44:46.190Z,15.73
2019-03-24T17:47:16.771Z,12.00
2019-03-24T17:49:47.447Z,15.77
2019-03-24T17:52:18.142Z,14.23
2019-03-24T17:54:50.976Z,14.03
2019-03-24T17:57:23.696Z,13.70
2019-03-24T17:59:54.294Z,17.37
2019-03-24T18:02:25.591Z,12.73
2019-03-24T18:04:57.360Z,10.10
2019-03-24T18:07:28.350Z,15.07
2019-03-24T18:09:59.092Z,14.00
2019-03-24T18:12:29.682Z,11.10
2019-03-24T18:15:00.420Z,18.20
2019-03-24T18:17:31.170Z,21.77
2019-03-24T18:20:02.864Z,34.97
2019-03-24T18:22:33.603Z,31.93
2019-03-24T18:25:04.343Z,40.47
2019-03-24T18:27:34.940Z,35.33
2019-03-24T18:30:08.198Z,24.57
2019-03-24T18:32:39.186Z,19.70
2019-03-24T18:35:21.980Z,18.53
2019-03-24T18:37:52.639Z,13.47
2019-03-24T18:40:23.188Z,16.90
2019-03-24T18:42:53.937Z,11.93
2019-03-24T18:45:24.578Z,21.17
2019-03-24T18:47:55.270Z,26.13
2019-03-24T18:50:25.904Z,30.23
2019-03-24T18:52:56.613Z,29.47
2019-03-24T18:55:27.193Z,34.17
2019-03-24T18:57:57.836Z,31.40
2019-03-24T19:00:28.530Z,28.03
2019-03-24T19:02:59.119Z,27.33
2019-03-24T19:05:30.505Z,37.40
2019-03-24T19:08:01.060Z,26.83
2019-03-24T19:10:31.728Z,41.87
2019-03-24T19:13:02.446Z,45.87
2019-03-24T19:15:33.092Z,121.90
2019-03-24T19:18:04.962Z,103.83
2019-03-24T19:20:35.625Z,97.77
2019-03-24T19:23:06.437Z,70.20
2019-03-24T19:25:37.091Z,83.30
2019-03-24T19:28:07.828Z,45.93
2019-03-24T19:30:41.131Z,65.97
2019-03-24T19:33:11.734Z,85.27
2019-03-24T19:35:42.322Z,70.73
2019-03-24T19:38:13.294Z,51.70
2019-03-24T19:40:43.877Z,50.40
2019-03-24T19:43:14.487Z,33.90
2019-03-24T19:45:45.118Z,33.27
2019-03-24T19:48:15.728Z,31.43
2019-03-24T19:50:46.349Z,28.77
2019-03-24T19:53:16.958Z,29.43
2019-03-24T19:55:47.956Z,27.53
2019-03-24T19:58:18.642Z,27.40
2019-03-24T20:00:49.943Z,19.10
2019-03-24T20:03:21.488Z,19.67
2019-03-24T20:05:55.567Z,21.17
2019-03-24T20:08:27.094Z,17.50
2019-03-24T20:10:58.622Z,13.00
2019-03-24T20:13:30.099Z,13.37
2019-03-24T20:16:01.881Z,11.60
2019-03-24T20:18:33.425Z,16.37
2019-03-24T20:21:05.965Z,12.43
2019-03-24T20:23:37.707Z,13.63
2019-03-24T20:26:10.636Z,14.73
2019-03-24T20:28:42.255Z,11.27
2019-03-24T20:31:13.932Z,12.07
2019-03-24T20:33:45.562Z,16.50
2019-03-24T20:36:17.052Z,13.63
2019-03-24T20:38:48.560Z,14.33
2019-03-24T20:41:20.141Z,12.07
2019-03-24T20:43:51.926Z,12.00
2019-03-24T20:46:23.406Z,7.77
2019-03-24T20:48:55.080Z,14.97
2019-03-24T20:51:26.662Z,11.40
2019-03-24T20:53:58.176Z,7.37
2019-03-24T20:56:28.721Z,9.60
2019-03-24T20:58:59.310Z,16.40
2019-03-24T21:01:30.001Z,13.23
2019-03-24T21:04:00.577Z,9.83
2019-03-24T21:06:32.157Z,13.67
2019-03-24T21:09:04.015Z,13.23
2019-03-24T21:11:36.193Z,11.53
2019-03-24T21:14:08.558Z,10.37
2019-03-24T21:16:40.202Z,10.00
2019-03-24T21:19:11.794Z,10.83
2019-03-24T21:21:44.420Z,11.30
2019-03-24T21:24:15.881Z,7.87
2019-03-24T21:26:47.558Z,13.67
2019-03-24T21:29:20.024Z,13.23
2019-03-24T21:31:51.529Z,11.00
2019-03-24T21:34:31.129Z,8.60
2019-03-24T21:37:02.632Z,8.80
2019-03-24T21:39:34.200Z,13.70
2019-03-24T21:42:05.888Z,8.10
2019-03-24T21:44:37.407Z,7.73
2019-03-24T21:47:09.703Z,14.40
2019-03-24T21:49:41.308Z,12.57
2019-03-24T21:52:12.852Z,10.87
2019-03-24T21:54:46.171Z,11.57
2019-03-24T21:57:17.944Z,13.67
2019-03-24T21:59:49.481Z,14.27
2019-03-24T22:02:21.043Z,9.80
2019-03-24T22:04:52.657Z,11.47
2019-03-24T22:07:24.227Z,11.03
2019-03-24T22:09:56.443Z,11.53
2019-03-24T22:12:27.987Z,9.37
2019-03-24T22:15:01.499Z,10.93
2019-03-24T22:17:38.266Z,10.67
2019-03-24T22:20:14.044Z,8.97
2019-03-24T22:22:45.479Z,10.87
2019-03-24T22:25:16.945Z,10.50
2019-03-24T22:27:56.117Z,9.57
2019-03-24T22:30:29.291Z,9.13
2019-03-24T22:33:01.483Z,11.93
2019-03-24T22:35:33.070Z,10.17
2019-03-24T22:38:04.966Z,12.57
2019-03-24T22:40:37.237Z,8.40
2019-03-24T22:43:08.707Z,7.73
2019-03-24T22:45:41.368Z,15.83
2019-03-24T22:48:12.896Z,9.60
2019-03-24T22:50:44.338Z,12.83
2019-03-24T22:53:15.971Z,14.50
2019-03-24T22:55:47.460Z,14.70
2019-03-24T22:58:18.986Z,11.57
2019-03-24T23:00:52.941Z,12.47
2019-03-24T23:03:25.575Z,11.90
2019-03-24T23:05:57.255Z,11.53
2019-03-24T23:08:28.786Z,16.77
2019-03-24T23:11:00.649Z,17.87
2019-03-24T23:13:32.135Z,8.60
2019-03-24T23:16:03.905Z,12.13
2019-03-24T23:18:35.356Z,10.03
2019-03-24T23:21:06.904Z,9.87
2019-03-24T23:23:38.444Z,11.80
2019-03-24T23:26:10.753Z,18.30
2019-03-24T23:28:42.480Z,15.10
2019-03-24T23:31:13.982Z,9.37
2019-03-24T23:33:45.987Z,9.67
2019-03-24T23:36:17.454Z,13.53
2019-03-24T23:38:48.903Z,16.80
2019-03-24T23:41:20.383Z,11.70
2019-03-24T23:43:51.842Z,17.07
2019-03-24T23:46:23.300Z,15.97
2019-03-24T23:48:54.766Z,14.47
2019-03-24T23:51:26.209Z,13.50
2019-03-24T23:53:57.693Z,14.90
2019-03-24T23:56:29.287Z,20.13
2019-03-24T23:59:01.228Z,13.00
